sensor_id;sensor_type;location;lat;lon;timestamp;pressure;altitude;pressure_sealevel;temperature;humidity
11912;BME280;6016;41.928;25.556;2023-11-19T00:00:27;98557.91;;;7.54;59.17
11912;BME280;6016;41.928;25.556;2023-11-19T00:02:54;98380.09;;;6.46;57.82
11912;BME280;6016;41.928;25.556;2023-11-19T00:05:23;98553.59;;;7.43;57.79
11912;BME280;6016;41.928;25.556;2023-11-19T00:07:49;98540.38;;;7.54;58.86
11912;BME280;6016;41.928;25.556;2023-11-19T00:10:17;98540.50;;;7.53;59.29
11912;BME280;6016;41.928;25.556;2023-11-19T00:12:47;98555.44;;;7.62;60.59
11912;BME280;6016;41.928;25.556;2023-11-19T00:15:14;98551.31;;;7.69;59.11
11912;BME280;6016;41.928;25.556;2023-11-19T00:17:45;98556.81;;;7.56;58.29
11912;BME280;6016;41.928;25.556;2023-11-19T00:20:13;98566.75;;;7.63;58.41
11912;BME280;6016;41.928;25.556;2023-11-19T00:22:41;98558.22;;;7.70;59.42
11912;BME280;6016;41.928;25.556;2023-11-19T00:25:09;98557.56;;;7.78;58.09
11912;BME280;6016;41.928;25.556;2023-11-19T00:27:36;98565.97;;;7.72;59.29
11912;BME280;6016;41.928;25.556;2023-11-19T00:30:04;98571.09;;;7.83;60.31
11912;BME280;6016;41.928;25.556;2023-11-19T00:32:32;98554.22;;;7.66;58.16
11912;BME280;6016;41.928;25.556;2023-11-19T00:34:59;98576.63;;;7.80;59.40
11912;BME280;6016;41.928;25.556;2023-11-19T00:37:26;98537.50;;;7.67;59.44
11912;BME280;6016;41.928;25.556;2023-11-19T00:39:55;98573.44;;;7.86;59.59
11912;BME280;6016;41.928;25.556;2023-11-19T00:42:22;98585.78;;;7.86;59.44
11912;BME280;6016;41.928;25.556;2023-11-19T00:44:49;98578.41;;;7.80;59.12
11912;BME280;6016;41.928;25.556;2023-11-19T00:47:16;98586.97;;;7.72;58.63
11912;BME280;6016;41.928;25.556;2023-11-19T00:49:46;98618.72;;;7.59;58.33
11912;BME280;6016;41.928;25.556;2023-11-19T00:52:14;98595.97;;;7.38;58.98
11912;BME280;6016;41.928;25.556;2023-11-19T00:54:40;98606.53;;;7.58;60.77
11912;BME280;6016;41.928;25.556;2023-11-19T00:57:09;98613.59;;;7.57;60.38
11912;BME280;6016;41.928;25.556;2023-11-19T00:59:36;98586.50;;;7.57;59.52
11912;BME280;6016;41.928;25.556;2023-11-19T01:02:03;98616.00;;;7.80;59.96
11912;BME280;6016;41.928;25.556;2023-11-19T01:04:33;98612.88;;;7.96;59.33
11912;BME280;6016;41.928;25.556;2023-11-19T01:07:01;98607.19;;;8.01;59.73
11912;BME280;6016;41.928;25.556;2023-11-19T01:09:29;98596.97;;;7.98;58.81
11912;BME280;6016;41.928;25.556;2023-11-19T01:11:57;98571.63;;;7.67;60.78
11912;BME280;6016;41.928;25.556;2023-11-19T01:14:27;98601.81;;;8.02;58.70
11912;BME280;6016;41.928;25.556;2023-11-19T01:16:54;98598.22;;;7.94;58.18
11912;BME280;6016;41.928;25.556;2023-11-19T01:19:21;98445.47;;;6.88;59.27
11912;BME280;6016;41.928;25.556;2023-11-19T01:21:49;98617.41;;;7.94;60.45
11912;BME280;6016;41.928;25.556;2023-11-19T01:24:17;98590.53;;;7.61;59.23
11912;BME280;6016;41.928;25.556;2023-11-19T01:26:44;98610.06;;;7.78;60.15
11912;BME280;6016;41.928;25.556;2023-11-19T01:29:11;98618.88;;;7.77;58.91
11912;BME280;6016;41.928;25.556;2023-11-19T01:31:41;98576.06;;;7.36;59.31
11912;BME280;6016;41.928;25.556;2023-11-19T01:34:08;98584.53;;;7.49;60.49
11912;BME280;6016;41.928;25.556;2023-11-19T01:36:35;98410.00;;;6.53;60.80
11912;BME280;6016;41.928;25.556;2023-11-19T01:39:02;98536.56;;;7.27;59.22
11912;BME280;6016;41.928;25.556;2023-11-19T01:41:34;98627.19;;;7.72;59.45
11912;BME280;6016;41.928;25.556;2023-11-19T01:44:00;98624.81;;;7.69;59.64
11912;BME280;6016;41.928;25.556;2023-11-19T01:46:27;98628.09;;;7.62;59.92
11912;BME280;6016;41.928;25.556;2023-11-19T01:48:56;98621.13;;;7.82;59.73
11912;BME280;6016;41.928;25.556;2023-11-19T01:51:24;98617.97;;;7.98;60.34
11912;BME280;6016;41.928;25.556;2023-11-19T01:53:51;98615.63;;;7.95;58.86
11912;BME280;6016;41.928;25.556;2023-11-19T01:56:20;98607.44;;;7.78;58.40
11912;BME280;6016;41.928;25.556;2023-11-19T01:58:48;98612.03;;;7.86;58.21
11912;BME280;6016;41.928;25.556;2023-11-19T02:01:16;98608.81;;;7.72;58.92
11912;BME280;6016;41.928;25.556;2023-11-19T02:03:43;98553.69;;;7.31;58.66
11912;BME280;6016;41.928;25.556;2023-11-19T02:06:11;98607.97;;;7.72;59.33
11912;BME280;6016;41.928;25.556;2023-11-19T02:08:39;98596.22;;;7.66;60.09
11912;BME280;6016;41.928;25.556;2023-11-19T02:11:06;98574.88;;;7.40;58.44
11912;BME280;6016;41.928;25.556;2023-11-19T02:13:34;98595.25;;;7.67;60.57
11912;BME280;6016;41.928;25.556;2023-11-19T02:16:02;98628.56;;;7.67;58.78
11912;BME280;6016;41.928;25.556;2023-11-19T02:18:29;98624.13;;;7.67;60.78
11912;BME280;6016;41.928;25.556;2023-11-19T02:20:57;98602.13;;;7.58;59.43
11912;BME280;6016;41.928;25.556;2023-11-19T02:23:27;98620.91;;;7.64;60.34
11912;BME280;6016;41.928;25.556;2023-11-19T02:26:01;98562.53;;;7.30;59.52
11912;BME280;6016;41.928;25.556;2023-11-19T02:28:30;98621.63;;;7.66;59.60
11912;BME280;6016;41.928;25.556;2023-11-19T02:30:58;98609.31;;;7.56;61.79
11912;BME280;6016;41.928;25.556;2023-11-19T02:33:25;98605.63;;;7.69;58.63
11912;BME280;6016;41.928;25.556;2023-11-19T02:35:52;98638.66;;;7.40;58.72
11912;BME280;6016;41.928;25.556;2023-11-19T02:38:18;98646.03;;;7.56;61.50
11912;BME280;6016;41.928;25.556;2023-11-19T02:40:47;98585.97;;;7.22;61.00
11912;BME280;6016;41.928;25.556;2023-11-19T02:43:14;98649.56;;;7.77;62.02
11912;BME280;6016;41.928;25.556;2023-11-19T02:45:43;98623.41;;;7.55;58.99
11912;BME280;6016;41.928;25.556;2023-11-19T02:48:11;98635.56;;;7.66;59.48
11912;BME280;6016;41.928;25.556;2023-11-19T02:50:39;98631.53;;;7.52;61.11
11912;BME280;6016;41.928;25.556;2023-11-19T02:53:06;98636.13;;;7.60;60.10
11912;BME280;6016;41.928;25.556;2023-11-19T02:55:33;98641.53;;;7.68;59.95
11912;BME280;6016;41.928;25.556;2023-11-19T02:58:03;98639.16;;;7.65;59.65
11912;BME280;6016;41.928;25.556;2023-11-19T03:00:35;98636.53;;;7.65;61.07
11912;BME280;6016;41.928;25.556;2023-11-19T03:03:09;98633.50;;;7.60;60.67
11912;BME280;6016;41.928;25.556;2023-11-19T03:05:45;98632.97;;;7.76;61.81
11912;BME280;6016;41.928;25.556;2023-11-19T03:08:14;98602.41;;;7.65;59.49
11912;BME280;6016;41.928;25.556;2023-11-19T03:10:42;98620.22;;;7.62;60.35
11912;BME280;6016;41.928;25.556;2023-11-19T03:13:12;98547.75;;;7.29;61.77
11912;BME280;6016;41.928;25.556;2023-11-19T03:15:40;98626.75;;;7.77;59.94
11912;BME280;6016;41.928;25.556;2023-11-19T03:18:07;98557.28;;;7.30;59.48
11912;BME280;6016;41.928;25.556;2023-11-19T03:20:35;98621.06;;;7.62;59.93
11912;BME280;6016;41.928;25.556;2023-11-19T03:23:02;98608.72;;;7.43;61.07
11912;BME280;6016;41.928;25.556;2023-11-19T03:25:29;98612.81;;;7.67;61.97
11912;BME280;6016;41.928;25.556;2023-11-19T03:27:59;98615.13;;;7.60;61.07
11912;BME280;6016;41.928;25.556;2023-11-19T03:30:26;98607.56;;;7.67;62.85
11912;BME280;6016;41.928;25.556;2023-11-19T03:32:54;98567.09;;;7.28;61.02
11912;BME280;6016;41.928;25.556;2023-11-19T03:35:21;98586.38;;;7.58;62.58
11912;BME280;6016;41.928;25.556;2023-11-19T03:37:49;98599.31;;;7.50;60.48
11912;BME280;6016;41.928;25.556;2023-11-19T03:40:17;98570.03;;;7.14;60.31
11912;BME280;6016;41.928;25.556;2023-11-19T03:42:44;98625.84;;;7.47;61.12
11912;BME280;6016;41.928;25.556;2023-11-19T03:45:10;98567.28;;;7.15;60.72
11912;BME280;6016;41.928;25.556;2023-11-19T03:47:37;98619.97;;;7.34;59.64
11912;BME280;6016;41.928;25.556;2023-11-19T03:50:06;98586.19;;;7.09;62.03
11912;BME280;6016;41.928;25.556;2023-11-19T03:52:34;98573.38;;;6.95;59.65
11912;BME280;6016;41.928;25.556;2023-11-19T03:55:02;98640.91;;;7.24;59.92
11912;BME280;6016;41.928;25.556;2023-11-19T03:57:30;98636.28;;;7.37;64.09
11912;BME280;6016;41.928;25.556;2023-11-19T03:59:57;98638.53;;;7.42;60.36
11912;BME280;6016;41.928;25.556;2023-11-19T04:02:26;98606.72;;;7.04;61.01
11912;BME280;6016;41.928;25.556;2023-11-19T04:04:54;98582.28;;;7.03;61.81
11912;BME280;6016;41.928;25.556;2023-11-19T04:07:21;98623.75;;;7.41;61.14
11912;BME280;6016;41.928;25.556;2023-11-19T04:09:48;98644.00;;;7.39;60.17
11912;BME280;6016;41.928;25.556;2023-11-19T04:12:16;98637.91;;;7.07;59.67
11912;BME280;6016;41.928;25.556;2023-11-19T04:14:43;98655.16;;;7.52;63.67
11912;BME280;6016;41.928;25.556;2023-11-19T04:17:10;98673.25;;;7.55;62.11
11912;BME280;6016;41.928;25.556;2023-11-19T04:19:37;98678.81;;;7.62;60.26
11912;BME280;6016;41.928;25.556;2023-11-19T04:22:06;98685.41;;;7.56;59.70
11912;BME280;6016;41.928;25.556;2023-11-19T04:24:33;98689.28;;;7.52;60.21
11912;BME280;6016;41.928;25.556;2023-11-19T04:27:00;98679.66;;;7.41;60.82
11912;BME280;6016;41.928;25.556;2023-11-19T04:29:30;98700.38;;;7.44;59.43
11912;BME280;6016;41.928;25.556;2023-11-19T04:31:57;98718.31;;;7.60;60.40
11912;BME280;6016;41.928;25.556;2023-11-19T04:34:24;98719.06;;;7.72;58.89
11912;BME280;6016;41.928;25.556;2023-11-19T04:36:51;98715.31;;;7.75;63.06
11912;BME280;6016;41.928;25.556;2023-11-19T04:39:18;98733.69;;;7.75;59.75
11912;BME280;6016;41.928;25.556;2023-11-19T04:41:48;98738.19;;;7.84;63.24
11912;BME280;6016;41.928;25.556;2023-11-19T04:44:15;98719.78;;;7.84;60.57
11912;BME280;6016;41.928;25.556;2023-11-19T04:46:44;98692.94;;;7.40;60.00
11912;BME280;6016;41.928;25.556;2023-11-19T04:49:12;98592.72;;;6.94;59.81
11912;BME280;6016;41.928;25.556;2023-11-19T04:51:39;98749.09;;;7.58;59.63
11912;BME280;6016;41.928;25.556;2023-11-19T04:54:07;98757.72;;;7.70;60.84
11912;BME280;6016;41.928;25.556;2023-11-19T04:56:35;98758.50;;;7.61;60.36
11912;BME280;6016;41.928;25.556;2023-11-19T04:59:03;98753.81;;;7.65;63.83
11912;BME280;6016;41.928;25.556;2023-11-19T05:01:31;98776.41;;;7.77;62.59
11912;BME280;6016;41.928;25.556;2023-11-19T05:04:00;98559.31;;;6.11;59.47
11912;BME280;6016;41.928;25.556;2023-11-19T05:06:27;98777.97;;;7.58;60.14
11912;BME280;6016;41.928;25.556;2023-11-19T05:08:54;98779.00;;;7.46;59.35
11912;BME280;6016;41.928;25.556;2023-11-19T05:11:22;98795.59;;;7.46;60.64
11912;BME280;6016;41.928;25.556;2023-11-19T05:13:48;98805.06;;;7.59;59.95
11912;BME280;6016;41.928;25.556;2023-11-19T05:16:16;98812.72;;;7.72;59.29
11912;BME280;6016;41.928;25.556;2023-11-19T05:18:43;98809.03;;;7.74;59.80
11912;BME280;6016;41.928;25.556;2023-11-19T05:21:11;98821.50;;;7.61;59.05
11912;BME280;6016;41.928;25.556;2023-11-19T05:23:39;98813.25;;;7.66;58.76
11912;BME280;6016;41.928;25.556;2023-11-19T05:26:07;98761.72;;;7.43;59.12
11912;BME280;6016;41.928;25.556;2023-11-19T05:28:34;98821.28;;;7.95;60.01
11912;BME280;6016;41.928;25.556;2023-11-19T05:31:01;98808.50;;;7.81;59.35
11912;BME280;6016;41.928;25.556;2023-11-19T05:33:28;98818.84;;;8.03;57.79
11912;BME280;6016;41.928;25.556;2023-11-19T05:35:55;98795.50;;;8.10;59.36
11912;BME280;6016;41.928;25.556;2023-11-19T05:38:24;98826.88;;;8.33;57.93
11912;BME280;6016;41.928;25.556;2023-11-19T05:40:50;98797.09;;;7.92;57.14
11912;BME280;6016;41.928;25.556;2023-11-19T05:43:17;98826.41;;;7.97;58.62
11912;BME280;6016;41.928;25.556;2023-11-19T05:45:44;98833.06;;;8.01;58.04
11912;BME280;6016;41.928;25.556;2023-11-19T05:48:12;98846.34;;;7.99;58.92
11912;BME280;6016;41.928;25.556;2023-11-19T05:50:38;98807.16;;;7.65;57.61
11912;BME280;6016;41.928;25.556;2023-11-19T05:53:05;98841.88;;;7.90;59.22
11912;BME280;6016;41.928;25.556;2023-11-19T05:55:37;98842.44;;;7.94;58.28
11912;BME280;6016;41.928;25.556;2023-11-19T05:58:10;98785.59;;;7.62;59.03
11912;BME280;6016;41.928;25.556;2023-11-19T06:00:38;98854.66;;;8.05;57.75
11912;BME280;6016;41.928;25.556;2023-11-19T06:03:06;98837.31;;;7.92;59.90
11912;BME280;6016;41.928;25.556;2023-11-19T06:05:33;98861.25;;;7.99;57.51
11912;BME280;6016;41.928;25.556;2023-11-19T06:08:00;98858.69;;;7.87;57.59
11912;BME280;6016;41.928;25.556;2023-11-19T06:10:27;98845.31;;;7.69;57.87
11912;BME280;6016;41.928;25.556;2023-11-19T06:12:59;98632.84;;;6.52;57.74
11912;BME280;6016;41.928;25.556;2023-11-19T06:15:26;98878.78;;;7.77;58.54
11912;BME280;6016;41.928;25.556;2023-11-19T06:17:53;98895.28;;;7.79;57.40
11912;BME280;6016;41.928;25.556;2023-11-19T06:20:20;98885.75;;;7.78;57.19
11912;BME280;6016;41.928;25.556;2023-11-19T06:22:47;98882.97;;;7.80;58.75
11912;BME280;6016;41.928;25.556;2023-11-19T06:25:14;98885.09;;;7.86;60.92
11912;BME280;6016;41.928;25.556;2023-11-19T06:27:41;98892.50;;;7.81;56.84
11912;BME280;6016;41.928;25.556;2023-11-19T06:30:11;98878.78;;;7.77;57.31
11912;BME280;6016;41.928;25.556;2023-11-19T06:32:38;98877.22;;;7.86;62.26
11912;BME280;6016;41.928;25.556;2023-11-19T06:35:05;98889.19;;;8.00;57.05
11912;BME280;6016;41.928;25.556;2023-11-19T06:37:33;98878.19;;;7.85;57.85
11912;BME280;6016;41.928;25.556;2023-11-19T06:40:00;98851.19;;;7.62;56.78
11912;BME280;6016;41.928;25.556;2023-11-19T06:42:26;98860.19;;;7.80;56.74
11912;BME280;6016;41.928;25.556;2023-11-19T06:44:53;98839.28;;;7.57;56.76
11912;BME280;6016;41.928;25.556;2023-11-19T06:47:25;98898.88;;;7.99;58.65
11912;BME280;6016;41.928;25.556;2023-11-19T06:49:52;98859.66;;;7.86;56.56
11912;BME280;6016;41.928;25.556;2023-11-19T06:52:19;98912.69;;;8.23;56.10
11912;BME280;6016;41.928;25.556;2023-11-19T06:54:46;98912.53;;;8.45;61.10
11912;BME280;6016;41.928;25.556;2023-11-19T06:57:13;98923.47;;;8.20;55.15
11912;BME280;6016;41.928;25.556;2023-11-19T06:59:40;98904.69;;;8.24;56.41
11912;BME280;6016;41.928;25.556;2023-11-19T07:02:07;98892.06;;;8.18;56.07
11912;BME280;6016;41.928;25.556;2023-11-19T07:04:35;98918.38;;;8.49;56.07
11912;BME280;6016;41.928;25.556;2023-11-19T07:07:02;98915.19;;;8.45;54.64
11912;BME280;6016;41.928;25.556;2023-11-19T07:09:31;98871.97;;;8.07;55.39
11912;BME280;6016;41.928;25.556;2023-11-19T07:11:58;98915.50;;;8.52;55.19
11912;BME280;6016;41.928;25.556;2023-11-19T07:14:25;98843.94;;;8.49;55.97
11912;BME280;6016;41.928;25.556;2023-11-19T07:16:52;98900.38;;;8.76;55.18
11912;BME280;6016;41.928;25.556;2023-11-19T07:19:21;98896.78;;;8.77;57.05
11912;BME280;6016;41.928;25.556;2023-11-19T07:21:49;98830.47;;;8.32;57.49
11912;BME280;6016;41.928;25.556;2023-11-19T07:24:16;98898.13;;;9.02;55.35
11912;BME280;6016;41.928;25.556;2023-11-19T07:26:43;98894.84;;;9.39;53.79
11912;BME280;6016;41.928;25.556;2023-11-19T07:29:11;98886.66;;;10.02;52.59
11912;BME280;6016;41.928;25.556;2023-11-19T07:31:37;98883.16;;;10.68;49.59
11912;BME280;6016;41.928;25.556;2023-11-19T07:34:04;98844.78;;;10.36;49.80
11912;BME280;6016;41.928;25.556;2023-11-19T07:36:32;98857.56;;;9.83;50.15
11912;BME280;6016;41.928;25.556;2023-11-19T07:39:00;98872.94;;;9.88;50.52
11912;BME280;6016;41.928;25.556;2023-11-19T07:41:27;98839.16;;;9.24;51.81
11912;BME280;6016;41.928;25.556;2023-11-19T07:43:54;98908.16;;;9.67;51.02
11912;BME280;6016;41.928;25.556;2023-11-19T07:46:21;98909.41;;;9.93;51.05
11912;BME280;6016;41.928;25.556;2023-11-19T07:48:48;98910.31;;;10.21;52.66
11912;BME280;6016;41.928;25.556;2023-11-19T07:51:15;98920.22;;;10.67;51.19
11912;BME280;6016;41.928;25.556;2023-11-19T07:53:42;98899.53;;;10.62;50.22
11912;BME280;6016;41.928;25.556;2023-11-19T07:56:11;98911.66;;;11.57;46.38
11912;BME280;6016;41.928;25.556;2023-11-19T07:58:38;98907.63;;;12.07;44.38
11912;BME280;6016;41.928;25.556;2023-11-19T08:01:05;98911.34;;;12.76;43.92
11912;BME280;6016;41.928;25.556;2023-11-19T08:03:32;98927.03;;;13.12;47.42
11912;BME280;6016;41.928;25.556;2023-11-19T08:06:00;98906.84;;;12.42;44.86
11912;BME280;6016;41.928;25.556;2023-11-19T08:08:27;98884.22;;;11.76;45.16
11912;BME280;6016;41.928;25.556;2023-11-19T08:10:55;98945.75;;;12.23;43.67
11912;BME280;6016;41.928;25.556;2023-11-19T08:13:24;98930.00;;;12.74;44.10
11912;BME280;6016;41.928;25.556;2023-11-19T08:15:51;98954.31;;;12.43;44.13
11912;BME280;6016;41.928;25.556;2023-11-19T08:18:18;98935.09;;;11.42;44.69
11912;BME280;6016;41.928;25.556;2023-11-19T08:20:45;98957.09;;;11.15;47.23
11912;BME280;6016;41.928;25.556;2023-11-19T08:23:14;98964.34;;;11.03;46.03
11912;BME280;6016;41.928;25.556;2023-11-19T08:25:41;98915.50;;;10.98;50.25
11912;BME280;6016;41.928;25.556;2023-11-19T08:28:08;98964.72;;;11.18;46.91
11912;BME280;6016;41.928;25.556;2023-11-19T08:30:36;98910.56;;;10.28;46.99
11912;BME280;6016;41.928;25.556;2023-11-19T08:33:03;98981.59;;;11.07;47.54
11912;BME280;6016;41.928;25.556;2023-11-19T08:35:31;98992.06;;;10.89;46.35
11912;BME280;6016;41.928;25.556;2023-11-19T08:37:58;98988.38;;;10.72;48.35
11912;BME280;6016;41.928;25.556;2023-11-19T08:40:25;98978.00;;;10.60;48.52
11912;BME280;6016;41.928;25.556;2023-11-19T08:42:52;98979.00;;;10.49;48.23
11912;BME280;6016;41.928;25.556;2023-11-19T08:45:19;98905.72;;;10.23;47.47
11912;BME280;6016;41.928;25.556;2023-11-19T08:47:47;98950.94;;;10.48;48.49
11912;BME280;6016;41.928;25.556;2023-11-19T08:50:14;98957.59;;;10.52;49.01
11912;BME280;6016;41.928;25.556;2023-11-19T08:52:41;98863.50;;;9.95;46.85
11912;BME280;6016;41.928;25.556;2023-11-19T08:55:08;98981.88;;;10.36;47.27
11912;BME280;6016;41.928;25.556;2023-11-19T08:57:35;98951.09;;;10.37;47.77
11912;BME280;6016;41.928;25.556;2023-11-19T09:00:02;98863.91;;;9.91;47.75
11912;BME280;6016;41.928;25.556;2023-11-19T09:02:30;98986.78;;;10.41;46.14
11912;BME280;6016;41.928;25.556;2023-11-19T09:04:59;98994.53;;;10.43;48.39
11912;BME280;6016;41.928;25.556;2023-11-19T09:07:26;98909.78;;;10.08;48.87
11912;BME280;6016;41.928;25.556;2023-11-19T09:09:53;98988.63;;;10.78;48.25
11912;BME280;6016;41.928;25.556;2023-11-19T09:12:20;98945.75;;;10.66;51.58
11912;BME280;6016;41.928;25.556;2023-11-19T09:14:47;99006.72;;;11.11;48.12
11912;BME280;6016;41.928;25.556;2023-11-19T09:17:14;98990.41;;;10.78;46.58
11912;BME280;6016;41.928;25.556;2023-11-19T09:19:42;99006.75;;;10.91;48.45
11912;BME280;6016;41.928;25.556;2023-11-19T09:22:11;98993.78;;;10.70;46.53
11912;BME280;6016;41.928;25.556;2023-11-19T09:24:38;98989.44;;;10.79;46.80
11912;BME280;6016;41.928;25.556;2023-11-19T09:27:05;98910.97;;;10.53;47.83
11912;BME280;6016;41.928;25.556;2023-11-19T09:29:32;98954.81;;;10.64;46.99
11912;BME280;6016;41.928;25.556;2023-11-19T09:31:59;98865.94;;;10.26;46.51
11912;BME280;6016;41.928;25.556;2023-11-19T09:34:26;98799.34;;;9.67;47.07
11912;BME280;6016;41.928;25.556;2023-11-19T09:36:53;98957.72;;;10.61;46.76
11912;BME280;6016;41.928;25.556;2023-11-19T09:39:21;98938.72;;;10.47;46.07
11912;BME280;6016;41.928;25.556;2023-11-19T09:41:48;98951.19;;;10.55;46.54
11912;BME280;6016;41.928;25.556;2023-11-19T09:44:16;98970.97;;;10.79;47.36
11912;BME280;6016;41.928;25.556;2023-11-19T09:46:44;98965.44;;;10.82;45.67
11912;BME280;6016;41.928;25.556;2023-11-19T09:49:13;98972.25;;;10.75;47.43
11912;BME280;6016;41.928;25.556;2023-11-19T09:51:41;98947.22;;;10.89;46.56
11912;BME280;6016;41.928;25.556;2023-11-19T09:54:08;98945.19;;;11.01;46.20
11912;BME280;6016;41.928;25.556;2023-11-19T09:56:37;98982.88;;;11.21;46.86
11912;BME280;6016;41.928;25.556;2023-11-19T09:59:05;98864.69;;;10.68;45.57
11912;BME280;6016;41.928;25.556;2023-11-19T10:01:32;98970.59;;;11.30;45.25
11912;BME280;6016;41.928;25.556;2023-11-19T10:04:01;98975.22;;;11.28;45.13
11912;BME280;6016;41.928;25.556;2023-11-19T10:06:28;98979.03;;;11.15;44.64
11912;BME280;6016;41.928;25.556;2023-11-19T10:08:56;98942.19;;;10.95;46.33
11912;BME280;6016;41.928;25.556;2023-11-19T10:11:23;98970.81;;;11.18;46.47
11912;BME280;6016;41.928;25.556;2023-11-19T10:13:51;98970.81;;;11.46;47.11
11912;BME280;6016;41.928;25.556;2023-11-19T10:16:18;98961.38;;;11.44;46.23
11912;BME280;6016;41.928;25.556;2023-11-19T10:18:46;98980.88;;;11.61;44.69
11912;BME280;6016;41.928;25.556;2023-11-19T10:21:14;98884.41;;;10.64;45.34
11912;BME280;6016;41.928;25.556;2023-11-19T10:23:49;98991.44;;;11.05;45.44
11912;BME280;6016;41.928;25.556;2023-11-19T10:26:18;98947.91;;;10.91;45.76
11912;BME280;6016;41.928;25.556;2023-11-19T10:28:46;98968.72;;;11.22;44.62
11912;BME280;6016;41.928;25.556;2023-11-19T10:31:15;98997.97;;;11.38;44.34
11912;BME280;6016;41.928;25.556;2023-11-19T10:33:42;98952.28;;;11.28;46.01
11912;BME280;6016;41.928;25.556;2023-11-19T10:36:11;99006.38;;;11.52;42.86
11912;BME280;6016;41.928;25.556;2023-11-19T10:38:38;98995.81;;;11.52;44.16
11912;BME280;6016;41.928;25.556;2023-11-19T10:41:06;98998.13;;;11.55;43.36
11912;BME280;6016;41.928;25.556;2023-11-19T10:43:43;99008.41;;;11.58;42.80
11912;BME280;6016;41.928;25.556;2023-11-19T10:46:11;99001.56;;;11.37;43.65
11912;BME280;6016;41.928;25.556;2023-11-19T10:48:40;99012.41;;;11.44;43.90
11912;BME280;6016;41.928;25.556;2023-11-19T10:51:07;98571.56;;;8.77;44.46
11912;BME280;6016;41.928;25.556;2023-11-19T10:53:37;99004.94;;;11.58;45.99
11912;BME280;6016;41.928;25.556;2023-11-19T10:56:10;99007.13;;;11.34;43.70
11912;BME280;6016;41.928;25.556;2023-11-19T10:58:44;98979.63;;;11.37;45.32
11912;BME280;6016;41.928;25.556;2023-11-19T11:01:16;98963.34;;;11.42;46.14
11912;BME280;6016;41.928;25.556;2023-11-19T11:03:47;98973.00;;;11.69;45.98
11912;BME280;6016;41.928;25.556;2023-11-19T11:06:17;98943.13;;;11.68;46.43
11912;BME280;6016;41.928;25.556;2023-11-19T11:08:46;98964.13;;;11.88;42.48
11912;BME280;6016;41.928;25.556;2023-11-19T11:11:15;98972.41;;;11.93;42.93
11912;BME280;6016;41.928;25.556;2023-11-19T11:13:43;98895.47;;;11.42;42.50
11912;BME280;6016;41.928;25.556;2023-11-19T11:16:11;98991.81;;;11.84;45.46
11912;BME280;6016;41.928;25.556;2023-11-19T11:18:38;98930.75;;;11.51;43.97
11912;BME280;6016;41.928;25.556;2023-11-19T11:21:10;98986.38;;;11.67;42.43
11912;BME280;6016;41.928;25.556;2023-11-19T11:24:16;98963.94;;;11.72;42.71
11912;BME280;6016;41.928;25.556;2023-11-19T11:27:08;98967.22;;;11.84;43.40
11912;BME280;6016;41.928;25.556;2023-11-19T11:29:45;98942.00;;;11.71;43.54
11912;BME280;6016;41.928;25.556;2023-11-19T11:32:24;98974.44;;;12.00;44.21
11912;BME280;6016;41.928;25.556;2023-11-19T11:35:12;98959.75;;;12.15;43.94
11912;BME280;6016;41.928;25.556;2023-11-19T11:37:45;98865.91;;;11.20;42.20
11912;BME280;6016;41.928;25.556;2023-11-19T11:40:14;98965.69;;;11.99;44.10
11912;BME280;6016;41.928;25.556;2023-11-19T11:42:41;98948.41;;;12.23;42.55
11912;BME280;6016;41.928;25.556;2023-11-19T11:45:09;98956.91;;;12.35;42.61
11912;BME280;6016;41.928;25.556;2023-11-19T11:48:14;98947.91;;;12.46;44.12
11912;BME280;6016;41.928;25.556;2023-11-19T11:50:56;98948.72;;;12.20;42.91
11912;BME280;6016;41.928;25.556;2023-11-19T11:53:25;98969.97;;;12.36;42.30
11912;BME280;6016;41.928;25.556;2023-11-19T11:55:56;98874.66;;;11.75;41.87
11912;BME280;6016;41.928;25.556;2023-11-19T11:58:42;98963.03;;;12.35;41.51
11912;BME280;6016;41.928;25.556;2023-11-19T12:01:14;98968.13;;;12.10;41.78
11912;BME280;6016;41.928;25.556;2023-11-19T12:03:46;98958.22;;;12.13;42.65
11912;BME280;6016;41.928;25.556;2023-11-19T12:06:12;98958.00;;;12.06;42.32
11912;BME280;6016;41.928;25.556;2023-11-19T12:08:41;98917.47;;;11.61;42.44
11912;BME280;6016;41.928;25.556;2023-11-19T12:11:08;98924.94;;;12.02;42.44
11912;BME280;6016;41.928;25.556;2023-11-19T12:13:53;98905.44;;;11.85;42.20
11912;BME280;6016;41.928;25.556;2023-11-19T12:16:23;98929.75;;;11.88;43.17
11912;BME280;6016;41.928;25.556;2023-11-19T12:18:53;98900.84;;;11.87;42.60
11912;BME280;6016;41.928;25.556;2023-11-19T12:21:30;98896.38;;;11.87;43.06
11912;BME280;6016;41.928;25.556;2023-11-19T12:24:00;98913.28;;;12.13;43.12
11912;BME280;6016;41.928;25.556;2023-11-19T12:26:39;98904.69;;;12.10;44.07
11912;BME280;6016;41.928;25.556;2023-11-19T12:29:06;98897.16;;;12.24;41.81
11912;BME280;6016;41.928;25.556;2023-11-19T12:31:34;98888.91;;;12.27;42.82
11912;BME280;6016;41.928;25.556;2023-11-19T12:34:10;98895.53;;;12.31;42.39
11912;BME280;6016;41.928;25.556;2023-11-19T12:36:39;98884.88;;;12.15;41.57
11912;BME280;6016;41.928;25.556;2023-11-19T12:39:09;98739.78;;;11.14;42.43
11912;BME280;6016;41.928;25.556;2023-11-19T12:41:51;98874.44;;;11.68;42.75
11912;BME280;6016;41.928;25.556;2023-11-19T12:44:19;98890.59;;;12.02;43.30
11912;BME280;6016;41.928;25.556;2023-11-19T12:46:46;98894.47;;;11.98;42.10
11912;BME280;6016;41.928;25.556;2023-11-19T12:49:25;98887.19;;;11.73;42.48
11912;BME280;6016;41.928;25.556;2023-11-19T12:51:52;98869.00;;;11.52;42.72
11912;BME280;6016;41.928;25.556;2023-11-19T12:54:20;98906.00;;;11.70;42.92
11912;BME280;6016;41.928;25.556;2023-11-19T12:56:57;98889.19;;;11.79;43.92
11912;BME280;6016;41.928;25.556;2023-11-19T12:59:25;98897.56;;;11.93;45.83
11912;BME280;6016;41.928;25.556;2023-11-19T13:01:56;98900.16;;;11.85;42.90
11912;BME280;6016;41.928;25.556;2023-11-19T13:04:23;98899.09;;;11.95;43.08
11912;BME280;6016;41.928;25.556;2023-11-19T13:06:54;98860.97;;;11.80;42.60
11912;BME280;6016;41.928;25.556;2023-11-19T13:09:24;98899.56;;;11.73;42.31
11912;BME280;6016;41.928;25.556;2023-11-19T13:11:52;98876.63;;;11.73;42.86
11912;BME280;6016;41.928;25.556;2023-11-19T13:14:19;98874.34;;;11.78;42.72